Winnipeg / James Armstrong Richardson International Airport

CYWG

27 de maio de 2022

Hora Código Clima Temp. Visibilidade Tecto Vento METAR/SPECI
6:00 da manhã
V
45 °F 15 mi - 320° 320° 5 kt METAR CYWG 271100Z 32005KT 15SM FEW250 07/07 A2983 RMK CC1 CC TR SLP107
5:00 da manhã
V
48 °F 15 mi - 290° 290° 3 kt METAR CYWG 271000Z 29003KT 15SM FEW100 09/09 A2983 RMK AC1 AC TR SLP107
4:00 da manhã
V
48 °F 15 mi - 340° 340° 4 kt METAR CYWG 270900Z 34004KT 15SM SKC 09/08 A2982 RMK SLP105
3:00 da manhã
V
52 °F 15 mi - 340° 340° 5 kt METAR CYWG 270800Z 34005KT 15SM SKC 11/09 A2980 RMK SLP098
2:00 da manhã
V
55 °F 15 mi - 160° 160° 2 kt METAR CYWG 270700Z 16002KT 15SM SKC 13/11 A2978 RMK SLP091 DENSITY ALT 900FT
1:00 da manhã
V
54 °F 15 mi - 140° 140° 5 kt METAR CYWG 270600Z 14005KT 15SM SKC 12/10 A2977 RMK SLP088 DENSITY ALT 800FT
12:19 da manhã
V
55 °F 15 mi - 160° 160° 8 kt METAR CYWG 270519Z 16008KT 15SM SCT160 13/11 A2978 RMK AC3 PRESFR SLP091 DENSITY ALT 1000FT
12:00 da manhã
V
57 °F 15 mi - 180° 180° 9 kt METAR CYWG 270500Z 18009KT 15SM -RA SCT100 14/11 A2980 RMK AC4 SLP097 DENSITY ALT 1100FT

26 de maio de 2022

Hora Código Clima Temp. Visibilidade Tecto Vento METAR/SPECI
11:00 da tarde
V
59 °F 15 mi 10.000 ft 070° 070° 6 kt METAR CYWG 270400Z 07006KT 15SM BKN100 15/09 A2982 RMK AC5 TS S-SW SLP103 DENSITY ALT 1100FT
10:23 da tarde
V
63 °F 15 mi 7.500 ft 170° 170° 4 kt METAR CYWG 270323Z 17004KT 15SM -SHRA BKN075 17/08 A2982 RMK AC6 TS SW SLP102 DENSITY ALT 1400FT
10:00 da tarde
V
63 °F 10 mi 10.000 ft 230° 230° 8 kt METAR CYWG 270300Z 23008KT 10SM -TSRA FEW010 BKN100 17/09 A2980 RMK SF1AC7 SF TR CB EMBD OCNL LTGCG SLP097 DENSITY ALT 1400FT
9:29 da tarde
V
64 °F 10 mi 8.700 ft 070° 070° 4 kt METAR CYWG 270229Z 07004KT 060V150 10SM -TSRA BKN087 18/07 A2976 RMK AC7 CB EMBD OCNL LTGCG SLP081 DENSITY ALT 1600FT
9:10 da tarde
V
66 °F 15 mi 8.900 ft 160° 160° 9 kt METAR CYWG 270210Z 16009KT 15SM -SHRA BKN089 19/06 A2974 RMK AC7 SLP077 DENSITY ALT 1700FT
9:00 da tarde
V
68 °F 15 mi 9.500 ft 170° 170° 10 - 16 kt METAR CYWG 270200Z 17010G16KT 15SM BKN095 BKN250 20/05 A2974 RMK AC7CI1 CI TR SLP077 DENSITY ALT 1800FT
8:00 da tarde
V
68 °F 15 mi 11.000 ft 170° 170° 11 - 17 kt METAR CYWG 270100Z 17011G17KT 15SM BKN110 20/06 A2975 RMK AC6 VIRGA W-NW SLP078 DENSITY ALT 1800FT
7:00 da tarde
V
72 °F 15 mi - 180° 180° 16 kt METAR CYWG 270000Z 18016KT 15SM FEW100 SCT250 22/04 A2975 RMK AC2CI1 VIRGA SW-W SLP080 DENSITY ALT 2000FT
6:00 da tarde
V
73 °F 15 mi - 160° 160° 17 - 24 kt METAR CYWG 262300Z 16017G24KT 15SM FEW065 FEW100 FEW250 23/04 A2977 RMK CU1AC1CI1 CU TR AC TR SLP085 DENSITY ALT 2100FT
5:00 da tarde
V
72 °F 15 mi - 180° 180° 15 - 23 kt METAR CYWG 262200Z 18015G23KT 15SM FEW060 FEW100 22/07 A2978 RMK CF1AC1 CF TR AC TR SLP091 DENSITY ALT 2000FT
4:00 da tarde
V
70 °F 15 mi - 140° 140° 16 - 22 kt METAR CYWG 262100Z 14016G22KT 15SM FEW100 21/07 A2981 RMK AC1 SLP099 DENSITY ALT 1900FT
3:00 da tarde
V
68 °F 15 mi - 150° 150° 18 kt METAR CYWG 262000Z 15018KT 15SM FEW100 FEW200 20/07 A2981 RMK AC1CI1 SLP101 DENSITY ALT 1700FT
2:00 da tarde
V
64 °F 15 mi 13.000 ft 160° 160° 13 - 19 kt METAR CYWG 261900Z 16013G19KT 15SM SCT090 BKN130 18/08 A2984 RMK AC3AC2 SLP109 DENSITY ALT 1400FT
1:00 da tarde
V
59 °F 15 mi 8.800 ft 170° 170° 12 - 17 kt METAR CYWG 261800Z 17012G17KT 15SM BKN088 15/07 A2986 RMK AC7 SLP118 DENSITY ALT 1100FT
12:00 da tarde
V
57 °F 15 mi 8.500 ft 160° 160° 10 kt METAR CYWG 261700Z 16010KT 15SM BKN085 BKN120 14/07 A2987 RMK AC6AC1 VIRGA N-E SLP120 DENSITY ALT 900FT
11:38 da manhã
V
57 °F 15 mi 8.700 ft 150° 150° 12 kt METAR CYWG 261638Z 15012KT 15SM BKN087 BKN120 14/07 A2987 RMK AC7AC1 AC TR VIRGA ALQDS SLP122 DENSITY ALT 900FT
11:14 da manhã
V
55 °F 15 mi 8.500 ft 160° 160° 7 kt METAR CYWG 261614Z 16007KT 15SM -RA BKN085 BKN120 13/08 A2988 RMK AC7AC1 AC TR SLP126 DENSITY ALT 800FT
11:00 da manhã
V
55 °F 15 mi 8.700 ft 160° 160° 8 kt METAR CYWG 261600Z 16008KT 15SM BKN087 BKN120 13/08 A2989 RMK AC7AC1 AC TR VIRGA ALQDS SLP128 DENSITY ALT 800FT
10:00 da manhã
V
55 °F 15 mi 9.900 ft 190° 190° 11 - 17 kt METAR CYWG 261500Z 19011G17KT 15SM BKN099 BKN120 13/08 A2989 RMK AC7AC1 AC TR VIRGA ALQDS SLP128 DENSITY ALT 900FT
9:00 da manhã
V
55 °F 15 mi 8.000 ft 180° 180° 11 - 17 kt METAR CYWG 261400Z 18011G17KT 15SM BKN080 OVC120 13/07 A2989 RMK AC6AC2 SLP128 DENSITY ALT 800FT
8:00 da manhã
V
54 °F 15 mi 12.000 ft 190° 190° 9 kt METAR CYWG 261300Z 19009KT 15SM BKN120 BKN230 12/07 A2989 RMK AC5CI2 SLP129
7:00 da manhã
V
50 °F 15 mi 23.000 ft 180° 180° 10 kt METAR CYWG 261200Z 18010KT 15SM FEW140 BKN230 10/06 A2990 RMK AC2CI5 SLP130
6:00 da manhã
V
48 °F 15 mi 23.000 ft 190° 190° 12 kt METAR CYWG 261100Z 19012KT 15SM BKN230 09/05 A2990 RMK CI5 SLP132
5:00 da manhã
V
48 °F 15 mi 27.000 ft 170° 170° 11 kt METAR CYWG 261000Z 17011KT 15SM FEW110 BKN270 09/05 A2989 RMK AC1CI5 SLP128
4:00 da manhã
V
50 °F 15 mi - 180° 180° 11 kt METAR CYWG 260900Z 18011KT 15SM FEW110 10/05 A2988 RMK AC2 SLP124
3:00 da manhã
V
52 °F 15 mi - 180° 180° 10 - 15 kt METAR CYWG 260800Z 18010G15KT 15SM FEW110 11/05 A2989 RMK AC2 SLP127
2:00 da manhã
V
54 °F 15 mi - 170° 170° 11 - 17 kt METAR CYWG 260700Z 17011G17KT 15SM FEW110 12/05 A2989 RMK AC2 SLP128
1:00 da manhã
V
54 °F 15 mi - 160° 160° 11 - 18 kt METAR CYWG 260600Z 16011G18KT 15SM FEW110 12/05 A2991 RMK AC2 SLP132
12:00 da manhã
V
57 °F 15 mi - 150° 150° 14 - 19 kt METAR CYWG 260500Z 15014G19KT 15SM FEW110 14/05 A2991 RMK AC2 SLP133 DENSITY ALT 900FT

25 de maio de 2022

Hora Código Clima Temp. Visibilidade Tecto Vento METAR/SPECI
11:00 da tarde
V
57 °F 15 mi - 160° 160° 10 kt METAR CYWG 260400Z 16010KT 15SM SCT110 14/06 A2992 RMK AC3 SLP136 DENSITY ALT 900FT
10:00 da tarde
V
59 °F 15 mi - 150° 150° 11 kt METAR CYWG 260300Z 15011KT 15SM FEW090 SCT120 15/07 A2992 RMK AC1AC3 SLP135 DENSITY ALT 1100FT
9:00 da tarde
V
64 °F 15 mi 13.000 ft 140° 140° 10 kt METAR CYWG 260200Z 14010KT 15SM FEW084 BKN130 18/07 A2992 RMK AC2AC3 SLP135 DENSITY ALT 1300FT
8:00 da tarde
V
64 °F 15 mi 12.000 ft 170° 170° 9 kt METAR CYWG 260100Z 17009KT 15SM SCT100 BKN120 18/06 A2992 RMK AC3AC3 ACC ASOCTD SLP136 DENSITY ALT 1400FT
7:00 da tarde
V
66 °F 15 mi 16.000 ft 120° 120° 8 kt METAR CYWG 260000Z 12008KT 15SM SCT130 BKN160 19/08 A2992 RMK AC3AC2 SLP139 DENSITY ALT 1500FT
6:00 da tarde
V
63 °F 15 mi 11.000 ft 100° 100° 7 kt METAR CYWG 252300Z 10007KT 15SM SCT075 BKN110 17/10 A2995 RMK AC3AC4 SLP147 DENSITY ALT 1200FT
5:25 da tarde
V
61 °F 15 mi 7.500 ft 120° 120° 11 kt METAR CYWG 252225Z 12011KT 15SM FEW059 BKN075 BKN100 16/09 A2995 RMK SC2AC3AC2 SLP150 DENSITY ALT 1100FT
5:00 da tarde
V
63 °F 10 mi 7.000 ft 150° 150° 20 - 28 kt METAR CYWG 252200Z 15020G28KT 10SM -SHRA SCT059 BKN070 17/05 A2996 RMK SC3AC4 PRESFR SLP153 DENSITY ALT 1100FT
4:07 da tarde
V
68 °F 15 mi 15.000 ft 170° 170° 17 kt METAR CYWG 252107Z 17017KT 15SM -SHRA SCT072 BKN150 BKN250 20/07 A2998 RMK AC4AC3CI1 CI TR SLP156 DENSITY ALT 1500FT
4:00 da tarde
V
70 °F 15 mi 15.000 ft 140° 140° 12 - 18 kt METAR CYWG 252100Z 14012G18KT 15SM SCT100 BKN150 BKN250 21/06 A2997 RMK AC4AC3CI1 CI TR SLP153 DENSITY ALT 1600FT
3:00 da tarde
V
70 °F 15 mi 15.000 ft 170° 170° 7 kt METAR CYWG 252000Z 17007KT 15SM SCT120 BKN150 BKN250 21/08 A2997 RMK AC3AC4CI1 CI TR SLP153 DENSITY ALT 1700FT
2:00 da tarde
V
66 °F 15 mi 11.000 ft 170° 170° 8 kt METAR CYWG 251900Z 17008KT 140V200 15SM SCT075 BKN110 BKN250 19/08 A2998 RMK AC4AC3CI1 CI TR ACC ASOCTD SLP158 DENSITY ALT 1400FT
1:42 da tarde
V
66 °F 15 mi 7.200 ft 200° 200° 3 kt METAR CYWG 251842Z 20003KT 180V290 15SM BKN072 BKN250 19/05 A2999 RMK AC7CI1 CI TR ACC ASOCTD SLP160 DENSITY ALT 1400FT
1:00 da tarde
V
68 °F 15 mi 8.400 ft 170° 170° 8 - 17 kt METAR CYWG 251800Z CCA 17008G17KT 15SM -SHRA FEW062CB BKN084 BKN250 20/06 A3001 RMK CB1AC6CI1 CI TR ACC ASOTD SLP166 DENSITY ALT 1500FT
12:48 da tarde
V
68 °F 15 mi 9.900 ft 180° 180° 11 - 16 kt METAR CYWG 251748Z 18011G16KT 15SM -SHRA BKN099 BKN250 20/06 A3001 RMK AC6CI1 SLP168 DENSITY ALT 1500FT
12:00 da tarde
V
68 °F 15 mi 10.000 ft 160° 160° 10 kt METAR CYWG 251700Z 16010KT 15SM BKN100 BKN250 20/05 A3003 RMK AC5CI2 ACC ASOCTD SLP174 DENSITY ALT 1500FT
11:00 da manhã
V
68 °F 15 mi 25.000 ft 170° 170° 10 kt METAR CYWG 251600Z 17010KT 15SM SCT099 BKN250 20/07 A3005 RMK AC4CI3 SLP181 DENSITY ALT 1500FT
10:00 da manhã
V
68 °F 15 mi 24.000 ft 170° 170° 8 kt METAR CYWG 251500Z 17008KT 140V200 15SM SCT100 BKN240 20/06 A3006 RMK AC3CI4 SLP185 DENSITY ALT 1400FT
9:00 da manhã
V
64 °F 15 mi 25.000 ft 170° 170° 8 kt METAR CYWG 251400Z 17008KT 15SM SCT130 BKN250 18/07 A3008 RMK AC4CI3 SLP189 DENSITY ALT 1100FT
8:00 da manhã
V
61 °F 15 mi 13.000 ft 170° 170° 7 kt METAR CYWG 251300Z 17007KT 15SM SCT096 BKN130 BKN250 16/08 A3008 RMK AC3AC2CI2 SLP191 DENSITY ALT 900FT
7:00 da manhã
V
54 °F 15 mi 11.000 ft 160° 160° 5 kt METAR CYWG 251200Z 16005KT 15SM BKN110 BKN250 12/08 A3009 RMK AC5CI2 SLP194
Dados mais antigos

Baixe nosso aplicativo

Fácil acesso a todas as condições meteorológicas da aviação no seu celular e no seu tablet.
Com muitas características não disponíveis no site, como suporte offline e uma lista pessoal de aeroportos.

Nós e terceiros acompanhamos seu comportamento na internet em nosso site com cookies. Se você continuar, nós assumimos que você concorda com nossa política de cookies. Saiba mais